Terminal Aerodrome Forecast
Issued by NWS

Home | Current Version | Previous Version | Text Only | Print | Product List | Glossary Off
Versions: 1 2 3 4 5 6 7 8 9 10 11 12 13 14

000
FTUS43 KMPX 012338
TAFRNH
TAF
KRNH 012338Z 0200/0224 31008KT P6SM OVC025
     FM020400 31005KT P6SM OVC018
     FM021500 30006KT P6SM OVC030=

USA.gov is the U.S. government's official web portal to all federal, state and local government web resources and services.